Time;durP1;ratioP1;P1;durP2;ratioP2;P2;SDS_P1;SDS_P2;PMS_P1;PMS_P2;Temp;Humidity;BMP_temperature;BMP_pressure;BME280_temperature;BME280_humidity;BME280_pressure;Samples;Min_cycle;Max_cycle;Signal;HPM_P1;HPM_P2
2023/09/03 00:01:11;;;;;;;6.25;3.08;;;;;;;;;;5073309;28;20458;-41
2023/09/03 00:03:37;;;;;;;4.80;2.83;;;;;;;;;;5076338;28;20241;-42
2023/09/03 00:06:03;;;;;;;3.78;3.08;;;;;;;;;;5075089;28;20072;-44
2023/09/03 00:08:28;;;;;;;6.60;2.80;;;;;;;;;;5074742;28;20088;-43
2023/09/03 00:10:54;;;;;;;5.43;3.13;;;;;;;;;;5072235;28;20072;-42
2023/09/03 00:13:20;;;;;;;6.07;2.70;;;;;;;;;;5073910;28;20024;-44
2023/09/03 00:15:46;;;;;;;6.38;3.00;;;;;;;;;;5074964;28;20051;-41
2023/09/03 00:18:12;;;;;;;4.00;2.85;;;;;;;;;;5074723;28;20033;-43
2023/09/03 00:20:38;;;;;;;4.97;2.83;;;;;;;;;;5062558;28;20037;-41
2023/09/03 00:23:04;;;;;;;4.28;2.78;;;;;;;;;;5073127;28;20067;-40
2023/09/03 00:25:36;;;;;;;7.38;2.85;;;;;;;;;;5076255;28;20068;-42
2023/09/03 00:28:05;;;;;;;8.98;2.80;;;;;;;;;;5075284;28;20032;-41
2023/09/03 00:30:31;;;;;;;7.55;2.90;;;;;;;;;;5074326;28;20028;-47
2023/09/03 00:32:56;;;;;;;5.45;3.33;;;;;;;;;;5074067;28;20029;-42
2023/09/03 00:35:21;;;;;;;4.25;2.55;;;;;;;;;;5076836;28;20038;-44
2023/09/03 00:37:47;;;;;;;4.65;3.08;;;;;;;;;;5071868;28;20036;-45
2023/09/03 00:40:12;;;;;;;8.15;3.10;;;;;;;;;;5075550;28;20040;-41
2023/09/03 00:42:38;;;;;;;5.55;2.80;;;;;;;;;;5075385;28;20099;-42
2023/09/03 00:45:03;;;;;;;5.55;3.13;;;;;;;;;;5075207;28;20178;-41
2023/09/03 00:47:29;;;;;;;9.57;2.90;;;;;;;;;;5075313;28;20028;-43
2023/09/03 00:49:55;;;;;;;7.10;3.25;;;;;;;;;;5076401;28;20193;-41
2023/09/03 00:52:23;;;;;;;3.72;2.90;;;;;;;;;;5072899;28;20029;-41
2023/09/03 00:54:49;;;;;;;8.23;2.75;;;;;;;;;;5076143;28;20294;-40
2023/09/03 00:57:14;;;;;;;14.88;4.07;;;;;;;;;;5073620;28;20111;-41
2023/09/03 00:59:41;;;;;;;5.18;2.75;;;;;;;;;;5074382;28;20086;-44
2023/09/03 01:02:06;;;;;;;5.97;3.00;;;;;;;;;;5073875;28;20056;-41
2023/09/03 01:04:32;;;;;;;3.63;2.92;;;;;;;;;;5074449;28;20057;-43
2023/09/03 01:06:58;;;;;;;4.53;3.03;;;;;;;;;;5076253;28;20025;-40
2023/09/03 01:09:23;;;;;;;5.70;2.38;;;;;;;;;;5072375;28;20040;-41
2023/09/03 01:12:15;;;;;;;7.43;2.70;;;;;;;;;;5074816;28;20064;-42
2023/09/03 01:15:01;;;;;;;4.15;3.08;;;;;;;;;;5074774;28;20055;-41
2023/09/03 01:17:46;;;;;;;7.32;2.45;;;;;;;;;;5074185;28;20040;-40
2023/09/03 01:20:20;;;;;;;6.60;3.20;;;;;;;;;;5073414;28;20413;-42
2023/09/03 01:23:22;;;;;;;6.43;3.08;;;;;;;;;;5077915;28;20024;-43
2023/09/03 01:25:53;;;;;;;6.47;3.20;;;;;;;;;;5071887;28;20037;-41
2023/09/03 01:28:26;;;;;;;3.53;2.58;;;;;;;;;;5075657;28;20033;-41
2023/09/03 01:30:56;;;;;;;4.78;2.80;;;;;;;;;;5072262;28;20054;-45
2023/09/03 01:33:24;;;;;;;4.32;2.50;;;;;;;;;;5074915;28;20464;-41
2023/09/03 01:35:49;;;;;;;7.20;2.55;;;;;;;;;;5075542;28;20444;-43
2023/09/03 01:38:15;;;;;;;7.28;2.60;;;;;;;;;;5072058;28;20077;-40
2023/09/03 01:40:41;;;;;;;5.93;2.97;;;;;;;;;;5075266;28;20409;-41
2023/09/03 01:43:06;;;;;;;6.70;2.95;;;;;;;;;;5070061;28;20056;-43
2023/09/03 01:45:39;;;;;;;6.25;2.85;;;;;;;;;;5071675;28;20116;-43
2023/09/03 01:48:19;;;;;;;7.70;3.05;;;;;;;;;;5074876;28;20032;-42
2023/09/03 01:51:11;;;;;;;5.70;2.90;;;;;;;;;;5069597;28;20401;-43
2023/09/03 01:53:46;;;;;;;3.85;2.42;;;;;;;;;;5055568;28;20505;-42
2023/09/03 01:56:13;;;;;;;6.95;2.65;;;;;;;;;;5065541;28;20048;-42
2023/09/03 01:58:41;;;;;;;4.65;2.72;;;;;;;;;;5075470;28;20076;-41
2023/09/03 02:01:09;;;;;;;3.28;2.50;;;;;;;;;;5073574;28;20097;-45
2023/09/03 02:03:35;;;;;;;6.65;3.17;;;;;;;;;;5078109;28;20035;-41
2023/09/03 02:06:00;;;;;;;5.85;2.80;;;;;;;;;;5072563;28;20395;-45
2023/09/03 02:08:25;;;;;;;6.40;2.70;;;;;;;;;;5074797;28;20101;-40
2023/09/03 02:10:51;;;;;;;5.82;2.63;;;;;;;;;;5079175;28;20051;-41
2023/09/03 02:13:16;;;;;;;4.13;2.58;;;;;;;;;;5073505;28;20028;-41
2023/09/03 02:15:42;;;;;;;4.22;2.90;;;;;;;;;;5074193;28;20027;-42
2023/09/03 02:18:07;;;;;;;10.68;3.10;;;;;;;;;;5073995;28;20033;-40
2023/09/03 02:20:32;;;;;;;4.82;2.90;;;;;;;;;;5073367;28;20037;-41
2023/09/03 02:22:58;;;;;;;4.68;2.70;;;;;;;;;;5075071;28;20028;-40
2023/09/03 02:25:23;;;;;;;5.55;2.65;;;;;;;;;;5069880;28;20040;-42
2023/09/03 02:27:48;;;;;;;6.32;2.90;;;;;;;;;;5075108;28;20029;-41
2023/09/03 02:30:14;;;;;;;2.97;2.60;;;;;;;;;;5072595;28;20039;-42
2023/09/03 02:32:39;;;;;;;7.70;2.88;;;;;;;;;;5072445;28;20051;-42
2023/09/03 02:35:05;;;;;;;6.10;2.40;;;;;;;;;;5067389;28;20390;-41
2023/09/03 02:37:30;;;;;;;8.55;2.80;;;;;;;;;;5066064;28;20086;-41
2023/09/03 02:39:56;;;;;;;3.15;2.80;;;;;;;;;;5071898;28;20096;-41
2023/09/03 02:42:21;;;;;;;3.40;3.08;;;;;;;;;;5075406;28;20032;-41
2023/09/03 02:44:47;;;;;;;5.43;2.65;;;;;;;;;;5069168;28;20037;-43
2023/09/03 02:47:12;;;;;;;4.30;2.78;;;;;;;;;;5072916;28;20063;-41
2023/09/03 02:49:38;;;;;;;6.05;2.60;;;;;;;;;;5066648;28;20033;-41
2023/09/03 02:52:03;;;;;;;4.75;3.40;;;;;;;;;;5077269;28;20035;-44
2023/09/03 02:54:28;;;;;;;4.32;2.45;;;;;;;;;;5076226;28;20044;-42
2023/09/03 02:56:54;;;;;;;4.40;2.78;;;;;;;;;;5075014;28;20032;-40
2023/09/03 02:59:19;;;;;;;4.05;2.60;;;;;;;;;;5073136;28;20048;-42
2023/09/03 03:01:45;;;;;;;5.38;2.88;;;;;;;;;;5071154;28;20097;-46
2023/09/03 03:04:10;;;;;;;3.67;2.78;;;;;;;;;;5070656;28;20036;-42
2023/09/03 03:06:35;;;;;;;4.78;2.83;;;;;;;;;;5073874;28;20083;-44
2023/09/03 03:09:01;;;;;;;4.32;2.40;;;;;;;;;;5075626;28;20063;-40
2023/09/03 03:11:26;;;;;;;3.30;2.17;;;;;;;;;;5078787;28;20017;-41
2023/09/03 03:13:52;;;;;;;5.45;2.38;;;;;;;;;;5076635;28;20051;-41
2023/09/03 03:16:18;;;;;;;5.60;2.63;;;;;;;;;;5077198;28;20524;-43
2023/09/03 03:18:45;;;;;;;9.45;2.60;;;;;;;;;;5071768;28;20020;-37
2023/09/03 03:21:17;;;;;;;5.57;2.80;;;;;;;;;;5075317;28;20025;-41
2023/09/03 03:23:46;;;;;;;6.55;2.35;;;;;;;;;;5078132;28;20073;-41
2023/09/03 03:26:11;;;;;;;4.18;2.50;;;;;;;;;;5077281;28;20061;-41
2023/09/03 03:28:36;;;;;;;4.18;2.63;;;;;;;;;;5075372;28;20031;-41
2023/09/03 03:31:15;;;;;;;2.97;2.10;;;;;;;;;;5077839;28;20125;-43
2023/09/03 03:33:42;;;;;;;3.95;2.35;;;;;;;;;;5075060;28;20499;-41
2023/09/03 03:36:10;;;;;;;4.15;2.30;;;;;;;;;;5076138;28;20029;-41
2023/09/03 03:38:36;;;;;;;5.30;2.42;;;;;;;;;;5068512;28;20078;-40
2023/09/03 03:41:14;;;;;;;4.43;2.63;;;;;;;;;;5077339;28;20044;-44
2023/09/03 03:43:41;;;;;;;3.45;2.42;;;;;;;;;;5078108;28;20056;-44
2023/09/03 03:46:09;;;;;;;3.05;2.03;;;;;;;;;;5075712;28;20065;-42
2023/09/03 03:48:35;;;;;;;3.97;2.20;;;;;;;;;;5076139;28;20028;-40
2023/09/03 03:51:01;;;;;;;5.57;2.50;;;;;;;;;;5089655;28;20071;-42
2023/09/03 03:53:27;;;;;;;7.53;2.40;;;;;;;;;;5075157;28;20524;-40
2023/09/03 03:56:03;;;;;;;3.90;2.50;;;;;;;;;;5077504;28;20025;-43
2023/09/03 03:58:30;;;;;;;2.70;2.47;;;;;;;;;;5075771;28;20044;-40
2023/09/03 04:00:55;;;;;;;6.05;2.40;;;;;;;;;;5076163;28;20048;-42
2023/09/03 04:03:24;;;;;;;4.68;2.50;;;;;;;;;;5077426;28;20028;-41
2023/09/03 04:06:00;;;;;;;3.67;2.15;;;;;;;;;;5076392;28;20045;-42
2023/09/03 04:08:27;;;;;;;6.63;2.55;;;;;;;;;;5075809;28;20075;-44
2023/09/03 04:11:00;;;;;;;3.92;2.63;;;;;;;;;;5068539;28;20041;-44
2023/09/03 04:13:27;;;;;;;3.40;2.35;;;;;;;;;;5075979;28;20039;-40
2023/09/03 04:15:56;;;;;;;2.90;2.15;;;;;;;;;;5078143;28;20502;-45
2023/09/03 04:18:22;;;;;;;3.35;2.47;;;;;;;;;;5077169;28;20029;-41
2023/09/03 04:20:55;;;;;;;4.03;2.47;;;;;;;;;;5069318;28;20060;-42
2023/09/03 04:23:21;;;;;;;4.72;2.72;;;;;;;;;;5074464;28;20020;-41
2023/09/03 04:25:47;;;;;;;6.57;2.53;;;;;;;;;;5075420;28;20037;-41
2023/09/03 04:28:12;;;;;;;5.57;2.10;;;;;;;;;;5076356;28;20478;-43
2023/09/03 04:30:39;;;;;;;2.83;2.30;;;;;;;;;;5076965;28;20025;-41
2023/09/03 04:33:08;;;;;;;5.30;2.67;;;;;;;;;;5075296;28;20036;-45
2023/09/03 04:35:37;;;;;;;5.78;2.60;;;;;;;;;;5074365;28;20029;-40
2023/09/03 04:38:03;;;;;;;4.10;2.58;;;;;;;;;;5075574;28;20054;-43
2023/09/03 04:40:33;;;;;;;2.53;2.03;;;;;;;;;;5076459;28;20324;-41
2023/09/03 04:42:58;;;;;;;4.63;2.05;;;;;;;;;;5071203;28;20486;-44
2023/09/03 04:45:24;;;;;;;2.63;2.42;;;;;;;;;;5075547;28;20063;-43
2023/09/03 04:47:49;;;;;;;3.70;2.13;;;;;;;;;;5073239;28;20037;-44
2023/09/03 04:50:14;;;;;;;7.07;2.90;;;;;;;;;;5076217;28;20040;-41
2023/09/03 04:52:43;;;;;;;6.10;2.67;;;;;;;;;;5075510;28;20070;-41
2023/09/03 04:55:09;;;;;;;4.47;2.63;;;;;;;;;;5068582;28;20032;-43
2023/09/03 04:57:35;;;;;;;4.43;3.30;;;;;;;;;;5078653;28;20021;-45
2023/09/03 05:00:00;;;;;;;5.25;2.38;;;;;;;;;;5070092;28;20037;-40
2023/09/03 05:02:25;;;;;;;2.60;2.35;;;;;;;;;;5073249;28;20054;-42
2023/09/03 05:04:51;;;;;;;5.70;3.00;;;;;;;;;;5074409;28;20044;-41
2023/09/03 05:07:17;;;;;;;3.65;2.40;;;;;;;;;;5074261;28;20059;-40
2023/09/03 05:09:43;;;;;;;2.63;2.00;;;;;;;;;;5075982;28;20037;-41
2023/09/03 05:12:08;;;;;;;3.90;3.00;;;;;;;;;;5075197;28;20199;-40
2023/09/03 05:14:33;;;;;;;4.43;2.85;;;;;;;;;;5073571;28;20039;-42
2023/09/03 05:16:59;;;;;;;3.58;2.83;;;;;;;;;;5070741;28;20028;-41
2023/09/03 05:19:24;;;;;;;4.13;2.38;;;;;;;;;;5065045;28;20047;-40
2023/09/03 05:21:50;;;;;;;8.10;3.00;;;;;;;;;;5075116;28;20067;-41
2023/09/03 05:24:16;;;;;;;5.03;2.63;;;;;;;;;;5075121;28;20044;-42
2023/09/03 05:26:41;;;;;;;6.32;3.10;;;;;;;;;;5075457;28;20027;-41
2023/09/03 05:29:07;;;;;;;4.32;2.60;;;;;;;;;;5075699;28;20521;-42
2023/09/03 05:31:32;;;;;;;3.88;2.83;;;;;;;;;;5072340;28;20107;-41
2023/09/03 05:33:59;;;;;;;3.00;2.58;;;;;;;;;;5074765;28;20115;-40
2023/09/03 05:36:25;;;;;;;4.75;2.72;;;;;;;;;;5075227;28;20028;-41
2023/09/03 05:38:50;;;;;;;4.13;2.80;;;;;;;;;;5073706;28;20020;-44
2023/09/03 05:41:15;;;;;;;2.78;2.47;;;;;;;;;;5078447;28;20024;-41
2023/09/03 05:43:41;;;;;;;5.20;2.70;;;;;;;;;;5072417;28;20100;-42
2023/09/03 05:46:06;;;;;;;5.78;2.55;;;;;;;;;;5071840;28;20556;-44
2023/09/03 05:48:32;;;;;;;5.57;2.78;;;;;;;;;;5073906;28;20083;-41
2023/09/03 05:50:59;;;;;;;2.83;2.30;;;;;;;;;;5072184;28;20140;-44
2023/09/03 05:53:24;;;;;;;4.15;2.70;;;;;;;;;;5073802;28;20051;-41
2023/09/03 05:55:50;;;;;;;3.00;2.70;;;;;;;;;;5067433;28;20039;-41
2023/09/03 05:58:16;;;;;;;6.78;2.97;;;;;;;;;;5073938;28;20048;-45
2023/09/03 06:00:42;;;;;;;5.82;2.80;;;;;;;;;;5074332;28;20516;-43
2023/09/03 06:03:08;;;;;;;5.40;2.42;;;;;;;;;;5068990;28;20037;-42
2023/09/03 06:05:34;;;;;;;3.20;2.42;;;;;;;;;;5074519;28;20024;-44
2023/09/03 06:08:00;;;;;;;4.80;2.13;;;;;;;;;;5065588;28;20033;-42
2023/09/03 06:10:26;;;;;;;5.90;3.17;;;;;;;;;;5072165;28;20067;-44
2023/09/03 06:12:51;;;;;;;4.25;2.90;;;;;;;;;;5066568;28;20587;-41
2023/09/03 06:15:17;;;;;;;5.22;2.70;;;;;;;;;;5073807;28;20029;-43
2023/09/03 06:17:42;;;;;;;5.53;2.70;;;;;;;;;;5072615;28;20123;-40
2023/09/03 06:20:10;;;;;;;4.88;2.67;;;;;;;;;;5064189;28;20043;-43
2023/09/03 06:22:35;;;;;;;3.25;2.95;;;;;;;;;;5072972;28;20040;-44
2023/09/03 06:25:01;;;;;;;4.25;2.67;;;;;;;;;;5073773;28;20391;-43
2023/09/03 06:27:26;;;;;;;4.05;2.78;;;;;;;;;;5075201;28;20046;-45
2023/09/03 06:29:52;;;;;;;8.40;2.70;;;;;;;;;;5077849;28;20039;-41
2023/09/03 06:32:17;;;;;;;2.88;2.47;;;;;;;;;;5079808;28;20028;-45
2023/09/03 06:34:43;;;;;;;3.85;2.95;;;;;;;;;;5076643;28;20025;-41
2023/09/03 06:37:08;;;;;;;4.03;2.67;;;;;;;;;;5062141;28;20031;-41
2023/09/03 06:39:33;;;;;;;5.18;2.83;;;;;;;;;;5071811;28;20044;-42
2023/09/03 06:41:59;;;;;;;4.22;2.88;;;;;;;;;;5076121;28;20039;-42
2023/09/03 06:44:25;;;;;;;4.40;2.80;;;;;;;;;;5067781;28;20037;-42
2023/09/03 06:46:50;;;;;;;4.72;2.63;;;;;;;;;;5087863;28;20390;-42
2023/09/03 06:49:15;;;;;;;5.18;2.70;;;;;;;;;;5077027;28;20040;-46
2023/09/03 06:51:41;;;;;;;3.58;2.70;;;;;;;;;;5077712;28;20025;-40
2023/09/03 06:54:06;;;;;;;5.18;2.78;;;;;;;;;;5064794;28;20049;-43
2023/09/03 06:56:32;;;;;;;4.07;2.85;;;;;;;;;;5078978;28;20047;-43
2023/09/03 06:58:57;;;;;;;3.53;2.55;;;;;;;;;;5076880;28;20141;-45
2023/09/03 07:01:23;;;;;;;5.70;2.80;;;;;;;;;;5076085;28;20044;-43
2023/09/03 07:03:48;;;;;;;5.68;3.03;;;;;;;;;;5077393;28;20108;-43
2023/09/03 07:06:14;;;;;;;4.05;2.83;;;;;;;;;;5074583;28;20115;-45
2023/09/03 07:08:39;;;;;;;4.05;2.85;;;;;;;;;;5085260;28;20047;-42
2023/09/03 07:11:04;;;;;;;4.78;3.10;;;;;;;;;;5070185;28;20040;-45
2023/09/03 07:13:30;;;;;;;7.35;2.70;;;;;;;;;;5077058;28;20024;-46
2023/09/03 07:15:55;;;;;;;5.60;3.28;;;;;;;;;;5073033;28;20024;-42
2023/09/03 07:18:20;;;;;;;3.25;2.70;;;;;;;;;;5073442;28;20028;-43
2023/09/03 07:20:46;;;;;;;4.13;2.92;;;;;;;;;;5075178;28;20532;-45
2023/09/03 07:23:11;;;;;;;3.15;2.60;;;;;;;;;;5075934;28;20550;-44
2023/09/03 07:25:37;;;;;;;4.78;2.40;;;;;;;;;;5074321;28;20033;-43
2023/09/03 07:28:02;;;;;;;5.22;2.83;;;;;;;;;;5074106;28;20021;-44
2023/09/03 07:30:29;;;;;;;2.75;2.55;;;;;;;;;;5067956;28;20562;-42
2023/09/03 07:32:55;;;;;;;5.22;2.97;;;;;;;;;;5069127;28;20584;-43
2023/09/03 07:35:20;;;;;;;5.60;2.42;;;;;;;;;;5073939;28;20055;-45
2023/09/03 07:37:46;;;;;;;7.40;2.83;;;;;;;;;;5069722;28;20028;-43
2023/09/03 07:40:11;;;;;;;3.58;2.83;;;;;;;;;;5067147;28;20065;-42
2023/09/03 07:42:37;;;;;;;4.25;2.78;;;;;;;;;;5067255;28;20033;-43
2023/09/03 07:45:03;;;;;;;5.15;3.10;;;;;;;;;;5071609;28;20043;-44
2023/09/03 07:47:28;;;;;;;3.75;2.92;;;;;;;;;;5069713;28;20031;-44
2023/09/03 07:49:54;;;;;;;7.95;2.85;;;;;;;;;;5064683;28;20029;-45
2023/09/03 07:52:20;;;;;;;6.38;3.15;;;;;;;;;;5072291;28;20059;-45
2023/09/03 07:54:45;;;;;;;5.07;2.90;;;;;;;;;;5073870;28;20067;-44
2023/09/03 07:57:12;;;;;;;4.25;2.72;;;;;;;;;;5068220;28;20028;-42
2023/09/03 07:59:38;;;;;;;3.75;2.90;;;;;;;;;;5067525;28;20064;-44
2023/09/03 08:02:04;;;;;;;3.42;2.72;;;;;;;;;;5071603;28;20024;-45
2023/09/03 08:04:30;;;;;;;3.90;2.72;;;;;;;;;;5070676;28;20070;-45
2023/09/03 08:06:55;;;;;;;2.63;2.42;;;;;;;;;;5069842;28;20115;-45
2023/09/03 08:09:23;;;;;;;7.45;2.78;;;;;;;;;;5070539;28;20047;-45
2023/09/03 08:11:49;;;;;;;5.40;2.92;;;;;;;;;;5073776;28;20543;-45
2023/09/03 08:14:15;;;;;;;3.83;2.78;;;;;;;;;;5077133;28;20033;-43
2023/09/03 08:16:40;;;;;;;3.72;2.75;;;;;;;;;;5075919;28;20031;-44
2023/09/03 08:19:05;;;;;;;3.05;2.53;;;;;;;;;;5076859;28;20094;-45
2023/09/03 08:21:31;;;;;;;4.97;2.50;;;;;;;;;;5073006;28;20039;-43
2023/09/03 08:23:56;;;;;;;3.95;2.70;;;;;;;;;;5075757;28;20449;-46
2023/09/03 08:26:22;;;;;;;3.33;2.88;;;;;;;;;;5069562;28;20028;-46
2023/09/03 08:28:47;;;;;;;3.30;2.58;;;;;;;;;;5072871;28;20040;-48
2023/09/03 08:31:13;;;;;;;4.35;2.60;;;;;;;;;;5073625;28;20034;-43
2023/09/03 08:33:40;;;;;;;3.17;2.50;;;;;;;;;;5070368;28;20607;-45
2023/09/03 08:36:06;;;;;;;2.70;2.50;;;;;;;;;;5068272;28;20426;-46
2023/09/03 08:38:31;;;;;;;6.43;3.03;;;;;;;;;;5083386;28;20038;-44
2023/09/03 08:40:57;;;;;;;5.03;2.70;;;;;;;;;;5068767;28;20044;-43
2023/09/03 08:43:24;;;;;;;7.95;2.75;;;;;;;;;;5075422;28;20063;-49
2023/09/03 08:45:54;;;;;;;3.30;2.88;;;;;;;;;;5074161;28;20037;-44
2023/09/03 08:48:20;;;;;;;3.30;3.00;;;;;;;;;;5073903;28;20052;-45
2023/09/03 08:50:46;;;;;;;7.05;2.60;;;;;;;;;;5072382;28;20082;-42
2023/09/03 08:53:12;;;;;;;4.80;2.85;;;;;;;;;;5077360;28;20028;-43
2023/09/03 08:55:39;;;;;;;2.78;2.45;;;;;;;;;;5074241;28;20486;-43
2023/09/03 08:58:04;;;;;;;2.92;2.58;;;;;;;;;;5076257;28;20085;-46
2023/09/03 09:00:31;;;;;;;3.08;2.78;;;;;;;;;;5076001;28;20498;-43
2023/09/03 09:02:59;;;;;;;6.32;2.90;;;;;;;;;;5074171;28;20465;-43
2023/09/03 09:05:26;;;;;;;4.15;3.05;;;;;;;;;;5073908;28;21353;-45
2023/09/03 09:07:52;;;;;;;4.45;3.05;;;;;;;;;;5075465;28;20111;-47
2023/09/03 09:10:22;;;;;;;4.03;2.70;;;;;;;;;;5074093;28;20559;-44
2023/09/03 09:12:56;;;;;;;3.60;2.75;;;;;;;;;;5075227;28;20050;-46
2023/09/03 09:15:21;;;;;;;4.32;2.70;;;;;;;;;;5072969;28;20056;-45
2023/09/03 09:17:48;;;;;;;3.05;2.75;;;;;;;;;;5075968;28;20024;-47
2023/09/03 09:20:17;;;;;;;3.13;2.80;;;;;;;;;;5073357;28;20106;-45
2023/09/03 09:22:45;;;;;;;8.10;3.30;;;;;;;;;;5079542;28;20029;-49
2023/09/03 09:25:21;;;;;;;6.60;2.33;;;;;;;;;;5077629;28;20029;-45
2023/09/03 09:27:47;;;;;;;2.90;2.42;;;;;;;;;;5075256;28;20028;-45
2023/09/03 09:30:15;;;;;;;2.90;2.65;;;;;;;;;;5073857;28;20098;-45
2023/09/03 09:32:42;;;;;;;3.08;2.72;;;;;;;;;;5076492;28;20059;-46
2023/09/03 09:35:08;;;;;;;3.80;2.95;;;;;;;;;;5074039;28;20024;-45
2023/09/03 09:37:39;;;;;;;6.30;2.83;;;;;;;;;;5073371;28;20484;-47
2023/09/03 09:40:05;;;;;;;2.60;2.40;;;;;;;;;;5074338;28;20040;-49
2023/09/03 09:42:31;;;;;;;2.90;2.70;;;;;;;;;;5077959;28;20048;-45
2023/09/03 09:45:01;;;;;;;3.05;2.53;;;;;;;;;;5074525;28;20044;-42
2023/09/03 09:47:27;;;;;;;3.65;2.75;;;;;;;;;;5073747;28;20466;-46
2023/09/03 09:49:52;;;;;;;5.57;2.72;;;;;;;;;;5074010;28;20104;-43
2023/09/03 09:52:19;;;;;;;3.38;2.30;;;;;;;;;;5073814;28;20111;-44
2023/09/03 09:54:46;;;;;;;3.58;2.92;;;;;;;;;;5072752;28;20033;-47
2023/09/03 09:57:22;;;;;;;6.15;2.95;;;;;;;;;;5074558;28;20078;-46
2023/09/03 10:00:01;;;;;;;5.68;2.45;;;;;;;;;;5064701;28;20530;-43
2023/09/03 10:02:27;;;;;;;4.53;2.80;;;;;;;;;;5074730;28;20375;-44
2023/09/03 10:04:53;;;;;;;4.82;3.13;;;;;;;;;;5069897;28;20041;-46
2023/09/03 10:07:19;;;;;;;3.78;3.33;;;;;;;;;;5070026;28;20496;-48
2023/09/03 10:09:45;;;;;;;9.88;2.80;;;;;;;;;;5085366;28;20115;-47
2023/09/03 10:12:11;;;;;;;5.25;3.03;;;;;;;;;;5068144;28;20020;-48
2023/09/03 10:14:37;;;;;;;3.53;2.67;;;;;;;;;;5072746;28;20414;-49
2023/09/03 10:17:05;;;;;;;3.05;2.72;;;;;;;;;;5075541;28;20054;-49
2023/09/03 10:19:42;;;;;;;7.53;2.95;;;;;;;;;;5074015;28;20047;-48
2023/09/03 10:22:12;;;;;;;3.83;2.88;;;;;;;;;;5062531;28;20039;-46
2023/09/03 10:24:39;;;;;;;6.40;3.08;;;;;;;;;;5068831;28;20036;-48
2023/09/03 10:27:12;;;;;;;8.55;3.53;;;;;;;;;;5073981;28;20056;-44
2023/09/03 10:29:40;;;;;;;5.85;2.78;;;;;;;;;;5073933;28;20516;-47
2023/09/03 10:32:06;;;;;;;6.18;3.15;;;;;;;;;;5064126;28;20036;-49
2023/09/03 10:34:35;;;;;;;4.18;3.33;;;;;;;;;;5070579;28;20056;-48
2023/09/03 10:37:07;;;;;;;7.05;3.63;;;;;;;;;;5073010;28;20024;-44
2023/09/03 10:39:37;;;;;;;3.92;3.35;;;;;;;;;;5074834;28;20069;-46
2023/09/03 10:42:15;;;;;;;6.25;3.60;;;;;;;;;;5071805;28;20031;-45
2023/09/03 10:44:50;;;;;;;4.60;3.28;;;;;;;;;;5072674;28;20037;-46
2023/09/03 10:47:18;;;;;;;3.67;3.38;;;;;;;;;;5074015;28;20743;-47
2023/09/03 10:49:46;;;;;;;5.22;3.25;;;;;;;;;;5084953;28;20028;-46
2023/09/03 10:52:39;;;;;;;3.95;3.20;;;;;;;;;;5073957;28;20033;-47
2023/09/03 10:55:20;;;;;;;3.53;3.22;;;;;;;;;;5067563;28;20040;-46
2023/09/03 10:58:10;;;;;;;3.95;3.17;;;;;;;;;;5073149;28;20070;-47
2023/09/03 11:00:35;;;;;;;3.70;3.22;;;;;;;;;;5066208;28;20033;-49
2023/09/03 11:03:18;;;;;;;5.78;3.30;;;;;;;;;;5074467;28;20024;-46
2023/09/03 11:06:17;;;;;;;4.13;3.30;;;;;;;;;;5067879;28;20116;-47
2023/09/03 11:08:42;;;;;;;3.10;2.70;;;;;;;;;;5067821;28;20552;-50
2023/09/03 11:11:10;;;;;;;4.93;2.55;;;;;;;;;;5057071;28;20033;-47
2023/09/03 11:13:35;;;;;;;4.38;3.15;;;;;;;;;;5077740;28;20032;-48
2023/09/03 11:16:01;;;;;;;4.53;3.08;;;;;;;;;;5077720;28;20528;-49
2023/09/03 11:18:27;;;;;;;6.22;3.25;;;;;;;;;;5075405;28;20030;-48
2023/09/03 11:20:55;;;;;;;3.72;3.10;;;;;;;;;;5067499;28;20028;-45
2023/09/03 11:23:21;;;;;;;4.60;3.10;;;;;;;;;;5074063;28;20029;-49
2023/09/03 11:25:47;;;;;;;6.90;3.53;;;;;;;;;;5076040;28;20055;-46
2023/09/03 11:28:13;;;;;;;3.90;3.15;;;;;;;;;;5074993;28;20056;-45
2023/09/03 11:30:46;;;;;;;7.85;3.35;;;;;;;;;;5077249;28;20032;-45
2023/09/03 11:33:25;;;;;;;5.53;3.08;;;;;;;;;;5079348;28;20025;-46
2023/09/03 11:35:51;;;;;;;5.82;4.07;;;;;;;;;;5077386;28;20111;-44
2023/09/03 11:38:16;;;;;;;9.18;5.93;;;;;;;;;;5076869;28;20062;-49
2023/09/03 11:40:41;;;;;;;7.13;3.65;;;;;;;;;;5076760;28;20084;-43
2023/09/03 11:43:09;;;;;;;5.53;3.72;;;;;;;;;;5076458;28;20067;-45
2023/09/03 11:45:35;;;;;;;3.60;3.30;;;;;;;;;;5075414;28;20394;-46
2023/09/03 11:48:06;;;;;;;5.85;3.85;;;;;;;;;;5076582;28;20017;-47
2023/09/03 11:50:32;;;;;;;3.35;3.10;;;;;;;;;;5073570;28;20033;-44
2023/09/03 11:53:04;;;;;;;3.38;2.85;;;;;;;;;;5078188;28;20059;-45
2023/09/03 11:55:34;;;;;;;3.22;3.03;;;;;;;;;;5077235;28;20033;-45
2023/09/03 11:58:03;;;;;;;3.83;3.40;;;;;;;;;;5076089;28;20146;-45
2023/09/03 12:00:30;;;;;;;4.10;3.10;;;;;;;;;;5077215;28;20041;-48
2023/09/03 12:02:58;;;;;;;3.40;3.10;;;;;;;;;;5077810;28;20107;-48
2023/09/03 12:05:24;;;;;;;6.43;3.50;;;;;;;;;;5072841;28;20041;-46
2023/09/03 12:07:49;;;;;;;7.28;3.25;;;;;;;;;;5074124;28;20103;-50
2023/09/03 12:10:19;;;;;;;4.32;3.30;;;;;;;;;;5075149;28;20068;-49
2023/09/03 12:12:45;;;;;;;4.25;3.42;;;;;;;;;;5077960;28;20173;-45
2023/09/03 12:15:21;;;;;;;6.93;3.70;;;;;;;;;;5077399;28;20055;-47
2023/09/03 12:17:47;;;;;;;9.73;3.15;;;;;;;;;;5073756;28;20056;-44
2023/09/03 12:20:32;;;;;;;5.97;3.55;;;;;;;;;;5076650;28;20035;-48
2023/09/03 12:23:14;;;;;;;3.97;3.45;;;;;;;;;;5072961;28;20029;-47
2023/09/03 12:25:40;;;;;;;;;;;;;;;;;;5075755;28;20452;-48
2023/09/03 12:28:06;;;;;;;5.72;2.78;;;;;;;;;;5075736;28;19942;-47
2023/09/03 12:30:56;;;;;;;4.97;3.33;;;;;;;;;;5075919;28;20428;-48
2023/09/03 12:33:27;;;;;;;5.07;2.90;;;;;;;;;;5076625;28;20032;-43
2023/09/03 12:36:08;;;;;;;5.85;3.65;;;;;;;;;;5078511;28;20445;-47
2023/09/03 12:39:06;;;;;;;5.53;3.25;;;;;;;;;;5068364;28;20025;-45
2023/09/03 12:41:37;;;;;;;3.25;2.95;;;;;;;;;;5039876;28;20053;-49
2023/09/03 12:44:07;;;;;;;4.47;3.17;;;;;;;;;;5074794;28;20435;-46
2023/09/03 12:46:36;;;;;;;4.53;3.30;;;;;;;;;;5072817;28;20025;-50
2023/09/03 12:49:02;;;;;;;5.82;3.38;;;;;;;;;;5073963;28;20077;-46
2023/09/03 12:51:28;;;;;;;4.18;3.25;;;;;;;;;;5074794;28;20467;-49
2023/09/03 12:53:54;;;;;;;4.25;3.25;;;;;;;;;;5073879;28;20752;-49
2023/09/03 12:56:19;;;;;;;8.30;3.55;;;;;;;;;;5076477;28;20107;-48
2023/09/03 12:58:46;;;;;;;4.32;3.40;;;;;;;;;;5075737;28;20049;-50
2023/09/03 13:01:12;;;;;;;3.65;3.35;;;;;;;;;;5075040;28;20025;-45
2023/09/03 13:03:37;;;;;;;8.30;3.42;;;;;;;;;;5074322;28;20373;-44
2023/09/03 13:06:03;;;;;;;5.13;3.58;;;;;;;;;;5075503;28;20371;-45
2023/09/03 13:08:30;;;;;;;3.88;3.47;;;;;;;;;;5072128;28;20028;-49
2023/09/03 13:10:56;;;;;;;4.80;3.50;;;;;;;;;;5073580;28;20442;-45
2023/09/03 13:13:21;;;;;;;4.88;3.35;;;;;;;;;;5072779;28;20070;-45
2023/09/03 13:15:47;;;;;;;6.35;3.50;;;;;;;;;;5074817;28;20043;-45
2023/09/03 13:18:13;;;;;;;5.88;3.72;;;;;;;;;;5063492;28;20103;-45
2023/09/03 13:20:38;;;;;;;4.43;3.30;;;;;;;;;;5063393;28;20096;-48
2023/09/03 13:23:04;;;;;;;4.28;3.35;;;;;;;;;;5068718;28;20490;-47
2023/09/03 13:25:29;;;;;;;5.63;3.53;;;;;;;;;;5075620;28;20045;-45
2023/09/03 13:27:55;;;;;;;3.83;3.42;;;;;;;;;;5076237;28;20427;-45
2023/09/03 13:30:20;;;;;;;4.05;3.35;;;;;;;;;;5073205;28;20032;-48
2023/09/03 13:32:45;;;;;;;3.28;2.92;;;;;;;;;;5071591;28;20056;-47
2023/09/03 13:35:11;;;;;;;6.57;3.47;;;;;;;;;;5074049;28;20039;-44
2023/09/03 13:37:36;;;;;;;4.47;3.38;;;;;;;;;;5073116;28;20008;-45
2023/09/03 13:40:05;;;;;;;5.63;3.40;;;;;;;;;;5063019;28;20467;-47
2023/09/03 13:42:31;;;;;;;5.55;3.67;;;;;;;;;;5073214;28;20061;-47
2023/09/03 13:44:56;;;;;;;6.60;3.75;;;;;;;;;;5074371;28;20040;-48
2023/09/03 13:47:22;;;;;;;4.22;3.08;;;;;;;;;;5072647;28;20017;-47
2023/09/03 13:49:49;;;;;;;5.32;3.22;;;;;;;;;;5074585;28;20037;-51
2023/09/03 13:52:15;;;;;;;4.70;3.20;;;;;;;;;;5073462;28;20358;-49
2023/09/03 13:54:40;;;;;;;4.05;3.22;;;;;;;;;;5068827;28;20081;-47
2023/09/03 13:57:06;;;;;;;5.43;3.17;;;;;;;;;;5073917;28;20474;-48
2023/09/03 13:59:34;;;;;;;3.63;3.10;;;;;;;;;;5074989;28;20445;-49
2023/09/03 14:01:59;;;;;;;4.78;3.38;;;;;;;;;;5066124;28;20100;-49
2023/09/03 14:04:25;;;;;;;3.42;3.00;;;;;;;;;;5072170;28;20067;-47
2023/09/03 14:06:50;;;;;;;3.72;2.97;;;;;;;;;;5072826;28;20043;-47
2023/09/03 14:09:16;;;;;;;3.33;3.03;;;;;;;;;;5073176;28;20078;-44
2023/09/03 14:11:42;;;;;;;4.75;3.03;;;;;;;;;;5072510;28;20782;-43
2023/09/03 14:14:08;;;;;;;5.93;3.00;;;;;;;;;;5063265;28;20032;-46
2023/09/03 14:16:33;;;;;;;5.70;2.97;;;;;;;;;;5072524;28;20025;-48
2023/09/03 14:18:58;;;;;;;6.10;3.53;;;;;;;;;;5068161;28;20036;-46
2023/09/03 14:21:24;;;;;;;7.20;3.50;;;;;;;;;;5068178;28;20040;-50
2023/09/03 14:23:50;;;;;;;4.70;3.38;;;;;;;;;;5071676;28;20036;-43
2023/09/03 14:26:16;;;;;;;4.95;3.17;;;;;;;;;;5071858;28;20379;-45
2023/09/03 14:28:41;;;;;;;9.18;3.47;;;;;;;;;;5071875;28;20050;-45
2023/09/03 14:31:07;;;;;;;4.88;2.92;;;;;;;;;;5070410;28;20120;-47
2023/09/03 14:33:33;;;;;;;3.85;2.97;;;;;;;;;;5062906;28;20082;-46
2023/09/03 14:35:58;;;;;;;4.97;2.80;;;;;;;;;;5071538;28;20040;-48
2023/09/03 14:38:24;;;;;;;4.93;3.20;;;;;;;;;;5072352;28;20032;-45
2023/09/03 14:40:50;;;;;;;6.20;3.05;;;;;;;;;;5071199;28;20051;-46
2023/09/03 14:43:15;;;;;;;3.45;3.15;;;;;;;;;;5068926;28;20021;-47
2023/09/03 14:45:40;;;;;;;7.90;2.95;;;;;;;;;;5072870;28;20082;-48